createdAt,value
2022-09-26T00:01:23.118Z,6.69
2022-09-26T00:03:56.303Z,6.72
2022-09-26T00:06:24.197Z,6.73
2022-09-26T00:08:51.797Z,6.72
2022-09-26T00:11:21.637Z,6.71
2022-09-26T00:13:52.472Z,6.71
2022-09-26T00:16:20.344Z,6.73
2022-09-26T00:18:52.164Z,6.76
2022-09-26T00:21:20.226Z,6.80
2022-09-26T00:23:47.953Z,6.84
2022-09-26T00:26:16.674Z,6.87
2022-09-26T00:28:43.778Z,6.92
2022-09-26T00:31:15.135Z,6.98
2022-09-26T00:33:42.326Z,7.06
2022-09-26T00:36:09.324Z,7.11
2022-09-26T00:38:36.817Z,7.17
2022-09-26T00:41:04.927Z,7.22
2022-09-26T00:43:35.429Z,7.30
2022-09-26T00:46:30.142Z,7.37
2022-09-26T00:49:22.467Z,7.43
2022-09-26T00:52:02.245Z,7.49
2022-09-26T00:54:30.205Z,7.50
2022-09-26T00:57:00.554Z,7.52
2022-09-26T00:59:31.554Z,7.54
2022-09-26T01:02:00.724Z,7.55
2022-09-26T01:04:29.735Z,7.61
2022-09-26T01:07:02.113Z,7.63
2022-09-26T01:09:29.682Z,7.63
2022-09-26T01:11:57.126Z,7.63
2022-09-26T01:14:24.628Z,7.63
2022-09-26T01:16:53.137Z,7.67
2022-09-26T01:19:50.955Z,7.71
2022-09-26T01:22:36.971Z,7.78
2022-09-26T01:25:22.494Z,7.83
2022-09-26T01:28:26.816Z,7.90
2022-09-26T01:31:05.598Z,7.99
2022-09-26T01:33:48.028Z,8.04
2022-09-26T01:36:39.338Z,8.08
2022-09-26T01:39:39.255Z,8.14
2022-09-26T01:42:26.257Z,8.18
2022-09-26T01:44:56.187Z,8.22
2022-09-26T01:47:29.566Z,8.26
2022-09-26T01:50:01.402Z,8.28
2022-09-26T01:52:34.413Z,8.30
2022-09-26T01:55:17.286Z,8.32
2022-09-26T01:57:52.297Z,8.34
2022-09-26T02:00:19.806Z,8.35
2022-09-26T02:02:49.406Z,8.33
2022-09-26T02:05:36.136Z,8.34
2022-09-26T02:08:06.207Z,8.33
2022-09-26T02:10:38.921Z,8.33
2022-09-26T02:13:14.198Z,8.33
2022-09-26T02:15:44.847Z,8.33
2022-09-26T02:18:32.133Z,8.40
2022-09-26T02:21:03.639Z,8.45
2022-09-26T02:23:31.117Z,8.47
2022-09-26T02:25:58.412Z,8.49
2022-09-26T02:28:25.334Z,8.50
2022-09-26T02:30:53.788Z,8.52
2022-09-26T02:33:21.705Z,8.53
2022-09-26T02:35:54.915Z,8.50
2022-09-26T02:38:25.655Z,8.47
2022-09-26T02:41:07.790Z,8.45
2022-09-26T02:44:13.202Z,8.44
2022-09-26T02:47:11.008Z,8.42
2022-09-26T02:50:04.116Z,8.41
2022-09-26T02:53:08.057Z,8.41
2022-09-26T02:55:48.344Z,8.39
2022-09-26T02:58:27.834Z,8.32
2022-09-26T03:01:19.904Z,8.25
2022-09-26T03:04:22.535Z,8.18
2022-09-26T03:06:51.786Z,8.16
2022-09-26T03:09:19.720Z,8.13
2022-09-26T03:11:47.753Z,8.13
2022-09-26T03:14:15.815Z,8.15
2022-09-26T03:16:44.671Z,8.21
2022-09-26T03:19:16.202Z,8.28
2022-09-26T03:21:45.304Z,8.34
2022-09-26T03:24:13.606Z,8.39
2022-09-26T03:26:42.050Z,8.41
2022-09-26T03:29:09.680Z,8.46
2022-09-26T03:31:36.884Z,8.50
2022-09-26T03:34:06.674Z,8.57
2022-09-26T03:36:33.815Z,8.65
2022-09-26T03:39:02.737Z,8.74
2022-09-26T03:41:36.203Z,8.79
2022-09-26T03:44:22.280Z,8.80
2022-09-26T03:47:07.436Z,8.82
2022-09-26T03:49:39.732Z,8.83
2022-09-26T03:52:10.839Z,8.82
2022-09-26T03:54:38.486Z,8.81
2022-09-26T03:57:05.471Z,8.81
2022-09-26T03:59:36.121Z,8.81
2022-09-26T04:02:03.865Z,8.82
2022-09-26T04:04:32.319Z,8.82
2022-09-26T04:07:00.217Z,8.84
2022-09-26T04:09:27.602Z,8.86
2022-09-26T04:11:55.236Z,8.86
2022-09-26T04:14:22.532Z,8.87
2022-09-26T04:16:55.444Z,8.88
2022-09-26T04:19:26.842Z,8.87
2022-09-26T04:21:53.921Z,8.87
2022-09-26T04:24:21.625Z,8.88
2022-09-26T04:26:48.737Z,8.90
2022-09-26T04:29:16.656Z,8.90
2022-09-26T04:32:02.410Z,8.94
2022-09-26T04:34:40.037Z,8.96
2022-09-26T04:37:10.248Z,9.01
2022-09-26T04:39:37.312Z,9.08
2022-09-26T04:42:04.901Z,9.12
2022-09-26T04:44:32.897Z,9.17
2022-09-26T04:46:59.897Z,9.22
2022-09-26T04:49:43.815Z,9.23
2022-09-26T04:52:10.825Z,9.24
2022-09-26T04:54:38.556Z,9.26
2022-09-26T04:57:06.064Z,9.29
2022-09-26T04:59:33.065Z,9.32
2022-09-26T05:02:04.096Z,9.38
2022-09-26T05:04:40.935Z,9.40
2022-09-26T05:07:08.090Z,9.44
2022-09-26T05:09:36.217Z,9.48
2022-09-26T05:12:18.358Z,9.49
2022-09-26T05:14:51.055Z,9.52
2022-09-26T05:17:18.114Z,9.56
2022-09-26T05:19:46.763Z,9.61
2022-09-26T05:22:30.290Z,9.69
2022-09-26T05:25:16.152Z,9.74
2022-09-26T05:27:43.161Z,9.80
2022-09-26T05:30:12.717Z,9.84
2022-09-26T05:32:40.307Z,9.86
2022-09-26T05:35:08.852Z,9.90
2022-09-26T05:37:40.677Z,9.92
2022-09-26T05:40:26.903Z,9.94
2022-09-26T05:43:01.485Z,9.95
2022-09-26T05:45:31.390Z,9.93
2022-09-26T05:48:01.186Z,9.93
2022-09-26T05:50:28.284Z,9.94
2022-09-26T05:52:59.330Z,9.96
2022-09-26T05:55:27.391Z,9.96
2022-09-26T05:58:06.402Z,9.99
2022-09-26T06:01:04.483Z,10.01
2022-09-26T06:03:36.166Z,10.06
2022-09-26T06:06:12.209Z,10.11
2022-09-26T06:08:40.226Z,10.17
2022-09-26T06:11:30.985Z,10.27
2022-09-26T06:14:01.001Z,10.35
2022-09-26T06:16:28.989Z,10.42
2022-09-26T06:18:56.248Z,10.45
2022-09-26T06:21:24.122Z,10.48
2022-09-26T06:23:55.378Z,10.53
2022-09-26T06:26:25.182Z,10.58
2022-09-26T06:28:58.332Z,10.65
2022-09-26T06:31:27.436Z,10.75
2022-09-26T06:34:13.359Z,10.83
2022-09-26T06:37:02.154Z,10.87
2022-09-26T06:39:35.961Z,10.91
2022-09-26T06:42:08.170Z,10.99
2022-09-26T06:44:48.552Z,11.03
2022-09-26T06:47:34.993Z,11.05
2022-09-26T06:50:24.620Z,11.09
2022-09-26T06:52:55.065Z,11.14
2022-09-26T06:55:24.251Z,11.26
2022-09-26T06:57:51.575Z,11.39
2022-09-26T07:00:19.126Z,11.48
2022-09-26T07:03:05.802Z,11.55
2022-09-26T07:05:54.725Z,11.61
2022-09-26T07:08:37.307Z,11.64
2022-09-26T07:11:31.226Z,11.72
2022-09-26T07:13:56.753Z,11.81
2022-09-26T07:16:24.255Z,11.87
2022-09-26T07:18:58.752Z,11.88
2022-09-26T07:21:37.233Z,11.94
2022-09-26T07:24:14.301Z,11.99
2022-09-26T07:26:42.756Z,12.01
2022-09-26T07:29:10.553Z,12.08
2022-09-26T07:31:38.589Z,12.21
2022-09-26T07:34:05.754Z,12.41
2022-09-26T07:36:32.867Z,12.63
2022-09-26T07:39:01.336Z,12.77
2022-09-26T07:41:31.302Z,12.93
2022-09-26T07:47:05.756Z,13.09
2022-09-26T07:49:51.385Z,13.12
2022-09-26T07:52:37.397Z,13.23
2022-09-26T07:55:26.979Z,13.41
2022-09-26T07:58:12.565Z,13.64
2022-09-26T08:00:58.023Z,13.84
2022-09-26T08:03:48.223Z,13.98
2022-09-26T08:06:33.261Z,14.07
2022-09-26T08:09:00.712Z,14.25
2022-09-26T08:11:46.072Z,14.49
2022-09-26T08:14:33.382Z,14.60
2022-09-26T08:17:14.628Z,14.68
2022-09-26T08:19:41.982Z,14.81
2022-09-26T08:22:09.412Z,14.96
2022-09-26T08:24:36.604Z,15.12
2022-09-26T08:27:23.407Z,15.28
2022-09-26T08:29:51.672Z,15.50
2022-09-26T08:32:20.033Z,15.69
2022-09-26T08:34:47.721Z,15.82
2022-09-26T08:37:33.273Z,15.90
2022-09-26T08:40:18.804Z,15.73
2022-09-26T08:43:20.032Z,15.60
2022-09-26T08:46:13.394Z,15.40
2022-09-26T08:49:14.925Z,15.31
2022-09-26T08:51:46.295Z,15.31
2022-09-26T08:54:35.343Z,15.21
2022-09-26T08:57:31.136Z,15.11
2022-09-26T08:59:58.596Z,14.96
2022-09-26T09:02:33.424Z,14.97
2022-09-26T09:05:23.892Z,15.03
2022-09-26T09:07:54.103Z,15.02
2022-09-26T09:10:38.673Z,15.09
2022-09-26T09:13:37.752Z,15.22
2022-09-26T09:16:52.173Z,15.34
2022-09-26T09:20:13.314Z,15.31
2022-09-26T09:23:14.333Z,15.27
2022-09-26T09:29:10.663Z,15.01
2022-09-26T09:31:44.302Z,15.02
2022-09-26T09:34:29.434Z,14.98
2022-09-26T09:37:28.654Z,15.03
2022-09-26T09:40:36.673Z,15.27
2022-09-26T09:43:13.693Z,15.48
2022-09-26T09:45:51.154Z,15.51
2022-09-26T09:48:18.932Z,15.55
2022-09-26T09:51:11.154Z,15.64
2022-09-26T09:54:08.489Z,15.75
2022-09-26T09:57:01.460Z,15.84
2022-09-26T10:00:05.896Z,15.97
2022-09-26T10:03:02.420Z,16.07
2022-09-26T10:05:44.444Z,16.08
2022-09-26T10:08:42.723Z,16.01
2022-09-26T10:11:43.444Z,16.03
2022-09-26T10:14:43.008Z,16.00
2022-09-26T10:17:29.671Z,16.06
2022-09-26T10:20:35.513Z,16.18
2022-09-26T10:23:06.355Z,16.32
2022-09-26T10:25:33.489Z,16.27
2022-09-26T10:28:05.354Z,16.31
2022-09-26T10:30:48.209Z,16.42
2022-09-26T10:33:29.583Z,16.46
2022-09-26T10:36:20.463Z,16.47
2022-09-26T10:39:19.072Z,16.45
2022-09-26T10:41:49.352Z,16.38
2022-09-26T10:44:34.342Z,16.48
2022-09-26T10:47:08.419Z,16.50
2022-09-26T10:50:14.868Z,16.47
2022-09-26T10:53:09.040Z,16.53
2022-09-26T10:55:44.330Z,16.61
2022-09-26T10:58:30.212Z,16.64
2022-09-26T11:01:04.277Z,16.70
2022-09-26T11:03:40.470Z,16.75
2022-09-26T11:06:26.073Z,16.83
2022-09-26T11:08:59.402Z,16.85
2022-09-26T11:11:48.133Z,16.83
2022-09-26T11:14:28.050Z,16.78
2022-09-26T11:17:08.952Z,16.82
2022-09-26T11:19:44.665Z,16.72
2022-09-26T11:22:30.068Z,16.63
2022-09-26T11:25:22.392Z,16.49
2022-09-26T11:28:07.894Z,16.41
2022-09-26T11:30:59.032Z,16.36
2022-09-26T11:33:28.542Z,16.26
2022-09-26T11:36:18.121Z,16.29
2022-09-26T11:38:47.897Z,16.36
2022-09-26T11:41:42.195Z,16.36
2022-09-26T11:44:30.279Z,16.40
2022-09-26T11:47:38.552Z,16.30
2022-09-26T11:50:35.725Z,16.32
2022-09-26T11:53:25.238Z,16.34
2022-09-26T11:56:29.945Z,16.31
2022-09-26T11:58:59.305Z,16.23
2022-09-26T12:01:27.462Z,16.12
2022-09-26T12:04:03.366Z,16.13
2022-09-26T12:06:35.190Z,16.17
2022-09-26T12:09:33.804Z,16.32
2022-09-26T12:12:09.874Z,16.42
2022-09-26T12:14:45.622Z,16.49
2022-09-26T12:17:36.402Z,16.55
2022-09-26T12:20:17.023Z,16.60
2022-09-26T12:23:00.480Z,16.64
2022-09-26T12:25:39.830Z,16.71
2022-09-26T12:28:25.636Z,16.78
2022-09-26T12:31:21.203Z,16.83
2022-09-26T12:34:02.173Z,16.85
2022-09-26T12:37:06.913Z,16.92
2022-09-26T12:39:52.359Z,16.83
2022-09-26T12:42:37.638Z,16.71
2022-09-26T12:45:28.147Z,16.66
2022-09-26T12:48:07.582Z,16.67
2022-09-26T12:50:53.429Z,16.64
2022-09-26T12:53:24.433Z,16.71
2022-09-26T12:56:11.271Z,16.63
2022-09-26T12:58:55.951Z,16.60
2022-09-26T13:01:28.920Z,16.48
2022-09-26T13:04:17.917Z,16.38
2022-09-26T13:07:17.942Z,16.33
2022-09-26T13:10:10.664Z,16.33
2022-09-26T13:12:50.092Z,16.38
2022-09-26T13:15:35.489Z,16.45
2022-09-26T13:18:26.518Z,16.45
2022-09-26T13:21:08.973Z,16.45
2022-09-26T13:23:37.867Z,16.39
2022-09-26T13:26:45.340Z,16.39
2022-09-26T13:29:33.814Z,16.28
2022-09-26T13:32:35.916Z,16.20
2022-09-26T13:35:13.558Z,16.13
2022-09-26T13:38:20.816Z,15.97
2022-09-26T13:41:08.840Z,15.95
2022-09-26T13:44:05.145Z,15.89
2022-09-26T13:46:50.683Z,15.81
2022-09-26T13:49:43.022Z,15.73
2022-09-26T13:52:31.634Z,15.67
2022-09-26T13:55:05.174Z,15.63
2022-09-26T13:57:35.343Z,15.52
2022-09-26T14:00:17.035Z,15.41
2022-09-26T14:03:09.690Z,15.36
2022-09-26T14:05:43.717Z,15.37
2022-09-26T14:08:49.158Z,15.36
2022-09-26T14:11:18.964Z,15.34
2022-09-26T14:13:47.483Z,15.34
2022-09-26T14:16:34.325Z,15.37
2022-09-26T14:19:07.477Z,15.35
2022-09-26T14:21:40.189Z,15.34
2022-09-26T14:24:38.015Z,15.26
2022-09-26T14:27:13.822Z,15.27
2022-09-26T14:29:42.451Z,15.31
2022-09-26T14:32:12.367Z,15.33
2022-09-26T14:34:57.435Z,15.33
2022-09-26T14:37:24.510Z,15.32
2022-09-26T14:40:11.961Z,15.27
2022-09-26T14:42:44.751Z,15.25
2022-09-26T14:45:17.450Z,15.20
2022-09-26T14:48:06.086Z,15.17
2022-09-26T14:50:41.529Z,15.17
2022-09-26T14:53:21.072Z,15.15
2022-09-26T14:56:14.377Z,15.13
2022-09-26T14:58:44.370Z,15.11
2022-09-26T15:01:18.147Z,15.10
2022-09-26T15:04:05.077Z,15.03
2022-09-26T15:06:42.883Z,14.99
2022-09-26T15:09:12.126Z,14.94
2022-09-26T15:11:48.670Z,14.90
2022-09-26T15:14:39.390Z,14.91
2022-09-26T15:17:07.000Z,14.89
2022-09-26T15:19:39.771Z,14.85
2022-09-26T15:22:13.195Z,14.81
2022-09-26T15:24:40.411Z,14.77
2022-09-26T15:27:29.245Z,14.71
2022-09-26T15:30:10.912Z,14.68
2022-09-26T15:32:38.723Z,14.62
2022-09-26T15:35:06.401Z,14.56
2022-09-26T15:37:35.225Z,14.50
2022-09-26T15:40:23.515Z,14.43
2022-09-26T15:43:21.752Z,14.40
2022-09-26T15:45:50.197Z,14.31
2022-09-26T15:48:20.409Z,14.28
2022-09-26T15:50:51.803Z,14.23
2022-09-26T15:53:25.164Z,14.11
2022-09-26T15:56:06.702Z,14.01
2022-09-26T15:58:47.023Z,13.92
2022-09-26T16:01:16.838Z,13.91
2022-09-26T16:04:22.911Z,13.91
2022-09-26T16:07:22.705Z,13.89
2022-09-26T16:09:51.834Z,13.85
2022-09-26T16:12:23.563Z,13.79
2022-09-26T16:15:04.513Z,13.76
2022-09-26T16:17:49.393Z,13.74
2022-09-26T16:20:16.467Z,13.72
2022-09-26T16:22:51.499Z,13.66
2022-09-26T16:25:18.980Z,13.63
2022-09-26T16:27:47.187Z,13.62
2022-09-26T16:30:30.262Z,13.55
2022-09-26T16:33:16.893Z,13.39
2022-09-26T16:35:46.246Z,13.28
2022-09-26T16:38:35.010Z,13.20
2022-09-26T16:41:31.384Z,13.07
2022-09-26T16:44:23.274Z,13.08
2022-09-26T16:46:54.608Z,13.13
2022-09-26T16:49:46.334Z,13.15
2022-09-26T16:52:27.066Z,13.15
2022-09-26T16:54:56.312Z,13.13
2022-09-26T16:57:26.788Z,13.09
2022-09-26T17:00:14.559Z,13.10
2022-09-26T17:02:42.224Z,13.07
2022-09-26T17:05:20.807Z,13.03
2022-09-26T17:07:49.252Z,13.01
2022-09-26T17:10:18.429Z,13.00
2022-09-26T17:12:51.670Z,13.01
2022-09-26T17:15:24.409Z,13.00
2022-09-26T17:17:54.284Z,12.97
2022-09-26T17:20:22.393Z,12.92
2022-09-26T17:22:49.952Z,12.88
2022-09-26T17:25:19.014Z,12.87
2022-09-26T17:27:47.777Z,12.85
2022-09-26T17:30:17.537Z,12.84
2022-09-26T17:32:51.438Z,12.82
2022-09-26T17:35:29.570Z,12.80
2022-09-26T17:37:56.958Z,12.73
2022-09-26T17:40:30.369Z,12.72
2022-09-26T17:43:00.340Z,12.69
2022-09-26T17:45:29.782Z,12.69
2022-09-26T17:47:59.207Z,12.72
2022-09-26T17:50:29.324Z,12.73
2022-09-26T17:52:58.203Z,12.74
2022-09-26T17:55:25.705Z,12.71
2022-09-26T17:57:54.446Z,12.69
2022-09-26T18:00:21.475Z,12.65
2022-09-26T18:02:57.461Z,12.61
2022-09-26T18:05:28.863Z,12.56
2022-09-26T18:08:01.413Z,12.50
2022-09-26T18:10:32.045Z,12.47
2022-09-26T18:13:03.320Z,12.44
2022-09-26T18:15:31.092Z,12.41
2022-09-26T18:18:02.640Z,12.38
2022-09-26T18:20:39.317Z,12.36
2022-09-26T18:23:13.924Z,12.38
2022-09-26T18:25:43.803Z,12.42
2022-09-26T18:28:13.735Z,12.36
2022-09-26T18:30:42.853Z,12.34
2022-09-26T18:33:11.397Z,12.25
2022-09-26T18:35:40.032Z,12.20
2022-09-26T18:38:12.065Z,12.16
2022-09-26T18:41:00.772Z,11.96
2022-09-26T18:43:32.030Z,11.95
2022-09-26T18:45:59.361Z,12.00
2022-09-26T18:48:30.719Z,12.03
2022-09-26T18:50:57.905Z,12.06
2022-09-26T18:53:30.533Z,12.07
2022-09-26T18:56:17.343Z,12.06
2022-09-26T18:58:47.924Z,12.07
2022-09-26T19:01:38.548Z,12.07
2022-09-26T19:04:08.314Z,12.09
2022-09-26T19:06:37.483Z,12.08
2022-09-26T19:09:07.324Z,12.07
2022-09-26T19:11:35.886Z,12.07
2022-09-26T19:14:16.361Z,12.06
2022-09-26T19:16:46.262Z,12.07
2022-09-26T19:19:13.974Z,12.08
2022-09-26T19:22:01.446Z,12.07
2022-09-26T19:24:45.923Z,12.02
2022-09-26T19:27:30.088Z,12.03
2022-09-26T19:29:59.837Z,12.02
2022-09-26T19:32:37.346Z,11.99
2022-09-26T19:35:26.239Z,12.01
2022-09-26T19:37:53.625Z,12.00
2022-09-26T19:40:22.001Z,11.98
2022-09-26T19:42:49.457Z,11.98
2022-09-26T19:45:18.421Z,11.98
2022-09-26T19:47:51.942Z,11.97
2022-09-26T19:50:22.337Z,11.96
2022-09-26T19:52:51.551Z,11.94
2022-09-26T19:55:22.021Z,11.92
2022-09-26T19:57:49.145Z,11.88
2022-09-26T20:00:19.403Z,11.81
2022-09-26T20:02:48.037Z,11.78
2022-09-26T20:05:24.029Z,11.73
2022-09-26T20:07:51.957Z,11.70
2022-09-26T20:10:25.451Z,11.66
2022-09-26T20:12:52.660Z,11.64
2022-09-26T20:15:22.514Z,11.64
2022-09-26T20:17:49.840Z,11.63
2022-09-26T20:20:18.352Z,11.63
2022-09-26T20:22:45.916Z,11.60
2022-09-26T20:25:21.474Z,11.58
2022-09-26T20:27:51.846Z,11.59
2022-09-26T20:30:39.372Z,11.54
2022-09-26T20:33:06.495Z,11.51
2022-09-26T20:35:36.815Z,11.50
2022-09-26T20:38:11.168Z,11.49
2022-09-26T20:40:39.853Z,11.51
2022-09-26T20:43:10.406Z,11.50
2022-09-26T20:45:40.912Z,11.49
2022-09-26T20:48:08.852Z,11.48
2022-09-26T20:50:38.722Z,11.47
2022-09-26T20:53:23.141Z,11.44
2022-09-26T20:55:51.382Z,11.42
2022-09-26T20:58:18.943Z,11.42
2022-09-26T21:00:46.293Z,11.41
2022-09-26T21:03:21.993Z,11.38
2022-09-26T21:05:49.175Z,11.38
2022-09-26T21:08:36.421Z,11.40
2022-09-26T21:11:03.580Z,11.40
2022-09-26T21:13:30.464Z,11.41
2022-09-26T21:15:57.391Z,11.40
2022-09-26T21:18:26.486Z,11.38
2022-09-26T21:20:54.517Z,11.33
2022-09-26T21:23:42.147Z,11.31
2022-09-26T21:26:18.279Z,11.27
2022-09-26T21:28:45.669Z,11.27
2022-09-26T21:31:26.276Z,11.25
2022-09-26T21:33:54.045Z,11.27
2022-09-26T21:36:21.445Z,11.23
2022-09-26T21:38:51.162Z,11.21
2022-09-26T21:41:18.820Z,11.21
2022-09-26T21:43:49.505Z,11.21
2022-09-26T21:46:17.633Z,11.23
2022-09-26T21:48:44.767Z,11.20
2022-09-26T21:51:13.171Z,11.18
2022-09-26T21:53:45.951Z,11.18
2022-09-26T21:56:21.960Z,11.19
2022-09-26T21:58:49.200Z,11.20
2022-09-26T22:01:16.310Z,11.17
2022-09-26T22:03:43.316Z,11.15
2022-09-26T22:06:10.710Z,11.13
2022-09-26T22:08:39.392Z,11.13
2022-09-26T22:11:09.046Z,11.12
2022-09-26T22:13:37.113Z,11.12
2022-09-26T22:16:08.234Z,11.11
2022-09-26T22:18:35.894Z,11.11
2022-09-26T22:21:04.877Z,11.13
2022-09-26T22:23:32.441Z,11.14
2022-09-26T22:25:59.646Z,11.14
2022-09-26T22:28:27.185Z,11.13
2022-09-26T22:30:54.871Z,11.11
2022-09-26T22:33:22.786Z,11.12
2022-09-26T22:35:50.886Z,11.11
2022-09-26T22:38:21.035Z,11.10
2022-09-26T22:41:03.142Z,11.07
2022-09-26T22:43:31.377Z,11.09
2022-09-26T22:46:06.226Z,11.07
2022-09-26T22:48:38.404Z,11.08
2022-09-26T22:51:06.279Z,11.09
2022-09-26T22:53:35.411Z,11.05
2022-09-26T22:56:05.449Z,11.06
2022-09-26T22:58:36.776Z,11.07
2022-09-26T23:01:10.718Z,11.07
2022-09-26T23:03:38.466Z,11.06
2022-09-26T23:06:06.093Z,11.06
2022-09-26T23:08:34.104Z,11.07
2022-09-26T23:11:02.818Z,11.06
2022-09-26T23:13:31.577Z,11.08
2022-09-26T23:16:06.602Z,11.07
2022-09-26T23:18:35.730Z,11.09
2022-09-26T23:21:13.533Z,11.07
2022-09-26T23:23:42.934Z,11.07
2022-09-26T23:26:23.494Z,11.05
2022-09-26T23:28:51.691Z,11.06
2022-09-26T23:31:19.282Z,11.03
2022-09-26T23:33:46.704Z,11.03
2022-09-26T23:36:13.965Z,11.00
2022-09-26T23:38:41.438Z,10.99
2022-09-26T23:41:09.521Z,10.96
2022-09-26T23:43:36.823Z,10.96
2022-09-26T23:46:03.938Z,10.96
2022-09-26T23:48:31.033Z,10.95
2022-09-26T23:50:58.217Z,10.92
2022-09-26T23:53:25.294Z,10.87
2022-09-26T23:55:52.958Z,10.80
2022-09-26T23:58:19.904Z,10.79
